Map

Track Data

SID SEASON NUMBER BASIN SUBBASIN NAME ISO_TIME NATURE LAT LON WMO_WIND WMO_PRES WMO_AGENCY TRACK_TYPE DIST2LAND LANDFALL IFLAG USA_AGENCY USA_ATCF_ID USA_LAT USA_LON USA_RECORD USA_STATUS USA_WIND USA_PRES USA_SSHS USA_R34_NE USA_R34_SE USA_R34_SW USA_R34_NW USA_R50_NE USA_R50_SE USA_R50_SW USA_R50_NW USA_R64_NE USA_R64_SE USA_R64_SW USA_R64_NW USA_POCI USA_ROCI USA_RMW USA_EYE TOKYO_LAT TOKYO_LON TOKYO_GRADE TOKYO_WIND TOKYO_PRES TOKYO_R50_DIR TOKYO_R50_LONG TOKYO_R50_SHORT TOKYO_R30_DIR TOKYO_R30_LONG TOKYO_R30_SHORT TOKYO_LAND CMA_LAT CMA_LON CMA_CAT CMA_WIND CMA_PRES HKO_LAT HKO_LON HKO_CAT HKO_WIND HKO_PRES NEWDELHI_LAT NEWDELHI_LON NEWDELHI_GRADE NEWDELHI_WIND NEWDELHI_PRES NEWDELHI_CI NEWDELHI_DP NEWDELHI_POCI REUNION_LAT REUNION_LON REUNION_TYPE REUNION_WIND REUNION_PRES REUNION_TNUM REUNION_CI REUNION_RMW REUNION_R34_NE REUNION_R34_SE REUNION_R34_SW REUNION_R34_NW REUNION_R50_NE REUNION_R50_SE REUNION_R50_SW REUNION_R50_NW REUNION_R64_NE REUNION_R64_SE REUNION_R64_SW REUNION_R64_NW BOM_LAT BOM_LON BOM_TYPE BOM_WIND BOM_PRES BOM_TNUM BOM_CI BOM_RMW BOM_R34_NE BOM_R34_SE BOM_R34_SW BOM_R34_NW BOM_R50_NE BOM_R50_SE BOM_R50_SW BOM_R50_NW BOM_R64_NE BOM_R64_SE BOM_R64_SW BOM_R64_NW BOM_ROCI BOM_POCI BOM_EYE BOM_POS_METHOD BOM_PRES_METHOD NADI_LAT NADI_LON NADI_CAT NADI_WIND NADI_PRES WELLINGTON_LAT WELLINGTON_LON WELLINGTON_WIND WELLINGTON_PRES DS824_LAT DS824_LON DS824_STAGE DS824_WIND DS824_PRES TD9636_LAT TD9636_LON TD9636_STAGE TD9636_WIND TD9636_PRES TD9635_LAT TD9635_LON TD9635_WIND TD9635_PRES TD9635_ROCI NEUMANN_LAT NEUMANN_LON NEUMANN_CLASS NEUMANN_WIND NEUMANN_PRES MLC_LAT MLC_LON MLC_CLASS MLC_WIND MLC_PRES USA_GUST BOM_GUST BOM_GUST_PER REUNION_GUST REUNION_GUST_PER USA_SEAHGT USA_SEARAD_NE USA_SEARAD_SE USA_SEARAD_SW USA_SEARAD_NW STORM_SPEED STORM_DIR
1859021S14078 1859 2 SI MM NOT_NAMED 1859-01-21 06:00:00 NR -14.2000 78.4000 reunion main 2264 2264 _____O________ -1 -14.2000 78.4000 99 9.90000 2 259
1859021S14078 1859 2 SI MM NOT_NAMED 1859-01-21 09:00:00 NR -14.2145 78.3162 main 2266 2266 _____P________ -1 -14.2145 78.3162 99 2 261
1859021S14078 1859 2 SI MM NOT_NAMED 1859-01-21 12:00:00 NR -14.2276 78.2272 main 2267 2259 _____P________ -1 -14.2276 78.2272 99 2 263
1859021S14078 1859 2 SI MM NOT_NAMED 1859-01-21 15:00:00 NR -14.2379 78.1281 main 2259 2249 _____P________ -1 -14.2379 78.1281 99 2 265
1859021S14078 1859 2 SI MM NOT_NAMED 1859-01-21 18:00:00 NR -14.2441 78.0135 main 2249 2239 _____P________ -1 -14.2441 78.0135 99 2 268
1859021S14078 1859 2 SI MM NOT_NAMED 1859-01-21 21:00:00 NR -14.2449 77.8786 main 2239 2219 _____P________ -1 -14.2449 77.8786 99 3 271
1859021S14078 1859 2 SI MM NOT_NAMED 1859-01-22 00:00:00 NR -14.2387 77.7181 main 2219 2198 _____P________ -1 -14.2387 77.7181 99 3 273
1859021S14078 1859 2 SI MM NOT_NAMED 1859-01-22 03:00:00 NR -14.2242 77.5269 main 2198 2178 _____P________ -1 -14.2242 77.5269 99 4 275
1859021S14078 1859 2 SI MM NOT_NAMED 1859-01-22 06:00:00 NR -14.2000 77.3000 reunion main 2178 2158 _____O________ -1 -14.2000 77.3000 99 9.90000 5 277
1859021S14078 1859 2 SI MM NOT_NAMED 1859-01-22 09:00:00 NR -14.1657 77.0343 main 2148 2132 _____P________ -1 -14.1657 77.0343 99 6 278
1859021S14078 1859 2 SI MM NOT_NAMED 1859-01-22 12:00:00 NR -14.1260 76.7346 main 2122 2092 _____P________ -1 -14.1260 76.7346 99 6 277
1859021S14078 1859 2 SI MM NOT_NAMED 1859-01-22 15:00:00 NR -14.0867 76.4076 main 2092 2062 _____P________ -1 -14.0867 76.4076 99 7 276
1859021S14078 1859 2 SI MM NOT_NAMED 1859-01-22 18:00:00 NR -14.0535 76.0603 main 2062 2026 _____P________ -1 -14.0535 76.0603 99 7 275
1859021S14078 1859 2 SI MM NOT_NAMED 1859-01-22 21:00:00 NR -14.0323 75.6992 main 2026 1997 _____P________ -1 -14.0323 75.6992 99 7 272
1859021S14078 1859 2 SI MM NOT_NAMED 1859-01-23 00:00:00 NR -14.0290 75.3311 main 1987 1957 _____P________ -1 -14.0290 75.3311 99 7 269
1859021S14078 1859 2 SI MM NOT_NAMED 1859-01-23 03:00:00 NR -14.0496 74.9625 main 1957 1913 _____P________ -1 -14.0496 74.9625 99 7 264
1859021S14078 1859 2 SI MM NOT_NAMED 1859-01-23 06:00:00 NR -14.1000 74.6000 reunion main 1913 1879 _____O________ -1 -14.1000 74.6000 99 9.90000 7 257
1859021S14078 1859 2 SI MM NOT_NAMED 1859-01-23 09:00:00 NR -14.2106 74.2636 main 1879 1835 _____P________ -1 -14.2106 74.2636 99 7 249
1859021S14078 1859 2 SI MM NOT_NAMED 1859-01-23 12:00:00 NR -14.3525 73.9282 main 1830 1796 _____P________ -1 -14.3525 73.9282 99 7 245
1859021S14078 1859 2 SI MM NOT_NAMED 1859-01-23 15:00:00 NR -14.5174 73.5949 main 1796 1758 _____P________ -1 -14.5174 73.5949 99 7 242
1859021S14078 1859 2 SI MM NOT_NAMED 1859-01-23 18:00:00 NR -14.6971 73.2647 main 1758 1719 _____P________ -1 -14.6971 73.2647 99 7 240
1859021S14078 1859 2 SI MM NOT_NAMED 1859-01-23 21:00:00 NR -14.8835 72.9389 main 1709 1671 _____P________ -1 -14.8835 72.9389 99 7 239
1859021S14078 1859 2 SI MM NOT_NAMED 1859-01-24 00:00:00 NR -15.0682 72.6186 main 1671 1637 _____P________ -1 -15.0682 72.6186 99 7 240
1859021S14078 1859 2 SI MM NOT_NAMED 1859-01-24 03:00:00 NR -15.2431 72.3052 main 1637 1599 _____P________ -1 -15.2431 72.3052 99 7 241
1859021S14078 1859 2 SI MM NOT_NAMED 1859-01-24 06:00:00 NR -15.4000 72.0000 reunion main 1599 1565 _____O________ -1 -15.4000 72.0000 99 9.90000 6 245
1859021S14078 1859 2 SI MM NOT_NAMED 1859-01-24 09:00:00 NR -15.4970 71.7283 main 1565 1541 _____P________ -1 -15.4970 71.7283 99 5 251
1859021S14078 1859 2 SI MM NOT_NAMED 1859-01-24 12:00:00 NR -15.5782 71.4681 main 1541 1511 _____P________ -1 -15.5782 71.4681 99 5 253
1859021S14078 1859 2 SI MM NOT_NAMED 1859-01-24 15:00:00 NR -15.6484 71.2131 main 1511 1487 _____P________ -1 -15.6484 71.2131 99 5 255
1859021S14078 1859 2 SI MM NOT_NAMED 1859-01-24 18:00:00 NR -15.7124 70.9572 main 1487 1453 _____P________ -1 -15.7124 70.9572 99 5 256
1859021S14078 1859 2 SI MM NOT_NAMED 1859-01-24 21:00:00 NR -15.7748 70.6943 main 1453 1423 _____P________ -1 -15.7748 70.6943 99 5 256
1859021S14078 1859 2 SI MM NOT_NAMED 1859-01-25 00:00:00 NR -15.8404 70.4179 main 1423 1389 _____P________ -1 -15.8404 70.4179 99 6 256
1859021S14078 1859 2 SI MM NOT_NAMED 1859-01-25 03:00:00 NR -15.9140 70.1220 main 1389 1355 _____P________ -1 -15.9140 70.1220 99 6 255
1859021S14078 1859 2 SI MM NOT_NAMED 1859-01-25 06:00:00 NR -16.0000 69.8000 reunion main 1355 1311 _____O________ -1 -16.0000 69.8000 99 9.90000 7 253
1859021S14078 1859 2 SI MM NOT_NAMED 1859-01-25 09:00:00 NR -16.1291 69.3822 main 1311 1263 _____P________ -1 -16.1291 69.3822 99 9 252
1859021S14078 1859 2 SI MM NOT_NAMED 1859-01-25 12:00:00 NR -16.2703 68.9329 main 1254 1210 _____P________ -1 -16.2703 68.9329 99 9 252
1859021S14078 1859 2 SI MM NOT_NAMED 1859-01-25 15:00:00 NR -16.4185 68.4666 main 1210 1152 _____P________ -1 -16.4185 68.4666 99 9 252
1859021S14078 1859 2 SI MM NOT_NAMED 1859-01-25 18:00:00 NR -16.5691 67.9981 main 1152 1108 _____P________ -1 -16.5691 67.9981 99 9 251
1859021S14078 1859 2 SI MM NOT_NAMED 1859-01-25 21:00:00 NR -16.7170 67.5422 main 1099 1051 _____P________ -1 -16.7170 67.5422 99 9 251
1859021S14078 1859 2 SI MM NOT_NAMED 1859-01-26 00:00:00 NR -16.8578 67.1139 main 1051 1007 _____P________ -1 -16.8578 67.1139 99 8 251
1859021S14078 1859 2 SI MM NOT_NAMED 1859-01-26 03:00:00 NR -16.9870 66.7281 main 1007 973 _____P________ -1 -16.9870 66.7281 99 7 250
1859021S14078 1859 2 SI MM NOT_NAMED 1859-01-26 06:00:00 NR -17.1000 66.4000 reunion main 973 949 _____O________ -1 -17.1000 66.4000 99 9.90000 6 250
1859021S14078 1859 2 SI MM NOT_NAMED 1859-01-26 09:00:00 NR -17.1938 66.1405 main 940 925 _____P________ -1 -17.1938 66.1405 99 5 249
1859021S14078 1859 2 SI MM NOT_NAMED 1859-01-26 12:00:00 NR -17.2699 65.9448 main 916 906 _____P________ -1 -17.2699 65.9448 99 4 247
1859021S14078 1859 2 SI MM NOT_NAMED 1859-01-26 15:00:00 NR -17.3309 65.8037 main 906 892 _____P________ -1 -17.3309 65.8037 99 3 244
1859021S14078 1859 2 SI MM NOT_NAMED 1859-01-26 18:00:00 NR -17.3796 65.7082 main 892 892 _____P________ -1 -17.3796 65.7082 99 2 240
1859021S14078 1859 2 SI MM NOT_NAMED 1859-01-26 21:00:00 NR -17.4183 65.6491 main 882 882 _____P________ -1 -17.4183 65.6491 99 1 231
1859021S14078 1859 2 SI MM NOT_NAMED 1859-01-27 00:00:00 NR -17.4496 65.6175 main 882 878 _____P________ -1 -17.4496 65.6175 99 1 213
1859021S14078 1859 2 SI MM NOT_NAMED 1859-01-27 03:00:00 NR -17.4760 65.6042 main 878 878 _____P________ -1 -17.4760 65.6042 99 1 206
1859021S14078 1859 2 SI MM NOT_NAMED 1859-01-27 06:00:00 NR -17.5000 65.6000 reunion main 878 _____O________ -1 -17.5000 65.6000 99 9.90000 0 0

About IBTrACS Database

This database is a web-friendly format of International Best Track Archive for Climate Stewardship (IBTrACS), a global best track data archive curated by NOAA dating back to 1842.

Updated: 2021-10-19